New Franklin, Missouri
Current Conditions -  °F | °C
As of 11:35 PM on Tuesday 25 Nov 2014 (Local Time) from KVER Reporting Station
Clear Clear  
Wind Chill: 22°   Ceiling: Unl
Heat Index: 29°   Visibility: 10mi
Dew Point: 18°   Wind: 7mph
Humidity: 64%   Direction: 140°SE
Pressure: 30.09"   Gusts: NA
Location:  39.02°N, 92.74°W
Report Text: KVER 260535Z AUTO 14006KT 10SM CLR M02/M08 A3009 RMK AO2 T10171077
Loading
Personal Weather Stations






























Interactive Weather Map New forecast layout! Learn more

10-Day Weather Forecast

Advertisements
Track Severe Weather on mobile